FACT/CPT METAR and TAF weather

Enter ICAO airport designator
Station Type Date Time Source
FACT METAR 2021/06/22 23:00 UTC NOAA

FACT 222300Z 34010KT 9999 SCT040 14/13 Q1016 NOSIG


Station Type Date Time Source
FACT Decoded METAR 2021/06/22 23:00 UTC NOAA

Cape Town, Cape Town International Airport, South Africa (FACT) 33-59S 018-36E 0M
Jun 22, 2021 - 07:00 PM EDT / 2021.06.22 2300 UTC
Wind: from the NNW (340 degrees) at 12 MPH (10 KT):0
Visibility: greater than 7 mile(s):0
Sky conditions: partly cloudy
Temperature: 57 F (14 C)
Dew Point: 55 F (13 C)
Relative Humidity: 93%
Pressure (altimeter): 30.00 in. Hg (1016 hPa)
ob: FACT 222300Z 34010KT 9999 SCT040 14/13 Q1016 NOSIG
cycle: 23

Station Type Date Time Source
FACT TAF 2021/06/22 18:11 UTC NOAA

TAF FACT 221600Z 2218/2324 33012KT 9999 FEW015 BKN035 TX17/2312Z TN13/2306Z PROB40
TEMPO 2300/2312 4000 -RA BKN014
BECMG 2310/2312 22010KT

Example: see airport list